createdAt,value
2022-11-12T00:00:47.113Z,20
2022-11-12T00:01:47.114Z,20
2022-11-12T00:02:47.085Z,20
2022-11-12T00:03:47.074Z,20
2022-11-12T00:04:47.072Z,20
2022-11-12T00:05:47.057Z,20
2022-11-12T00:06:47.048Z,20
2022-11-12T00:07:47.047Z,20
2022-11-12T00:08:47.025Z,20
2022-11-12T00:09:47.012Z,20
2022-11-12T00:10:47.013Z,20
2022-11-12T00:11:47.001Z,20
2022-11-12T00:12:46.980Z,20
2022-11-12T00:13:46.985Z,20
2022-11-12T00:14:46.963Z,20
2022-11-12T00:15:46.986Z,20
2022-11-12T00:16:46.941Z,20
2022-11-12T00:17:46.927Z,20
2022-11-12T00:18:46.914Z,20
2022-11-12T00:19:46.923Z,20
2022-11-12T00:20:46.893Z,20
2022-11-12T00:21:46.890Z,20
2022-11-12T00:22:46.876Z,20
2022-11-12T00:23:46.878Z,20
2022-11-12T00:24:46.855Z,20
2022-11-12T00:25:46.850Z,20
2022-11-12T00:26:46.834Z,20
2022-11-12T00:27:46.820Z,20
2022-11-12T00:28:46.812Z,20
2022-11-12T00:29:46.810Z,20
2022-11-12T00:30:46.787Z,20
2022-11-12T00:31:46.793Z,20
2022-11-12T00:32:46.768Z,20
2022-11-12T00:33:46.758Z,20
2022-11-12T00:34:46.745Z,20
2022-11-12T00:35:46.737Z,20
2022-11-12T00:36:46.729Z,20
2022-11-12T00:37:46.740Z,20
2022-11-12T00:38:46.712Z,20
2022-11-12T00:39:46.692Z,20
2022-11-12T00:40:46.687Z,20
2022-11-12T00:41:46.676Z,20
2022-11-12T00:42:46.657Z,20
2022-11-12T00:45:04.558Z,20
2022-11-12T00:46:12.173Z,20
2022-11-12T00:47:14.285Z,20
2022-11-12T00:48:12.218Z,20
2022-11-12T00:49:14.395Z,20
2022-11-12T00:50:04.489Z,20
2022-11-12T00:51:12.154Z,20
2022-11-12T00:52:04.481Z,20
2022-11-12T00:53:04.506Z,20
2022-11-12T00:55:40.305Z,20
2022-11-12T00:56:40.323Z,20
2022-11-12T00:57:40.255Z,20
2022-11-12T00:58:40.270Z,20
2022-11-12T00:59:40.266Z,20
2022-11-12T01:00:40.237Z,20
2022-11-12T01:01:40.228Z,20
2022-11-12T01:02:40.235Z,20
2022-11-12T01:03:40.195Z,20
2022-11-12T01:04:40.225Z,20
2022-11-12T01:05:40.209Z,20
2022-11-12T01:06:40.168Z,20
2022-11-12T01:07:40.164Z,20
2022-11-12T01:08:40.146Z,20
2022-11-12T01:09:40.124Z,20
2022-11-12T01:10:40.137Z,20
2022-11-12T01:11:40.140Z,20
2022-11-12T01:12:40.097Z,20
2022-11-12T01:13:40.078Z,20
2022-11-12T01:14:40.072Z,20
2022-11-12T01:15:40.070Z,20
2022-11-12T01:16:40.068Z,20
2022-11-12T01:17:40.099Z,20
2022-11-12T01:18:40.036Z,20
2022-11-12T01:19:40.013Z,20
2022-11-12T01:20:40.046Z,20
2022-11-12T01:21:40.011Z,20
2022-11-12T01:22:39.980Z,20
2022-11-12T01:23:40.034Z,20
2022-11-12T01:24:39.991Z,20
2022-11-12T01:25:39.974Z,20
2022-11-12T01:26:39.995Z,20
2022-11-12T01:27:39.962Z,20
2022-11-12T01:28:39.938Z,20
2022-11-12T01:29:39.910Z,20
2022-11-12T01:30:39.989Z,20
2022-11-12T01:31:39.904Z,20
2022-11-12T01:32:39.878Z,20
2022-11-12T01:33:39.888Z,20
2022-11-12T01:34:39.857Z,20
2022-11-12T01:35:39.850Z,20
2022-11-12T01:36:39.857Z,20
2022-11-12T01:37:39.855Z,20
2022-11-12T01:38:39.827Z,20
2022-11-12T01:39:39.832Z,20
2022-11-12T01:40:39.805Z,20
2022-11-12T01:41:39.787Z,20
2022-11-12T01:42:39.783Z,20
2022-11-12T01:43:39.782Z,20
2022-11-12T01:44:39.760Z,20
2022-11-12T01:45:39.802Z,20
2022-11-12T01:46:39.761Z,20
2022-11-12T01:47:39.721Z,20
2022-11-12T01:48:39.714Z,20
2022-11-12T01:49:39.725Z,20
2022-11-12T01:50:39.719Z,20
2022-11-12T01:51:39.719Z,20
2022-11-12T01:52:39.694Z,20
2022-11-12T01:53:39.748Z,20
2022-11-12T01:54:39.695Z,20
2022-11-12T01:55:39.756Z,20
2022-11-12T01:56:39.632Z,20
2022-11-12T01:57:39.614Z,20
2022-11-12T01:58:39.609Z,20
2022-11-12T01:59:39.599Z,20
2022-11-12T02:00:39.585Z,20
2022-11-12T02:01:39.602Z,20
2022-11-12T02:02:39.561Z,20
2022-11-12T02:03:39.556Z,20
2022-11-12T02:04:39.543Z,20
2022-11-12T02:05:39.531Z,20
2022-11-12T02:06:39.531Z,20
2022-11-12T02:07:39.514Z,20
2022-11-12T02:08:39.502Z,20
2022-11-12T02:09:39.489Z,20
2022-11-12T02:10:39.477Z,20
2022-11-12T02:11:39.474Z,20
2022-11-12T02:12:39.461Z,20
2022-11-12T02:13:39.447Z,20
2022-11-12T02:14:39.440Z,20
2022-11-12T02:15:39.422Z,20
2022-11-12T02:16:39.414Z,20
2022-11-12T02:17:39.416Z,20
2022-11-12T02:18:39.395Z,20
2022-11-12T02:19:39.380Z,20
2022-11-12T02:20:39.374Z,20
2022-11-12T02:21:39.364Z,20
2022-11-12T02:22:39.350Z,20
2022-11-12T02:23:39.346Z,20
2022-11-12T02:24:39.334Z,20
2022-11-12T02:25:39.322Z,20
2022-11-12T02:26:39.311Z,20
2022-11-12T02:27:39.297Z,20
2022-11-12T02:28:39.292Z,20
2022-11-12T02:29:39.288Z,20
2022-11-12T02:30:39.291Z,20
2022-11-12T02:31:39.259Z,20
2022-11-12T02:32:39.244Z,20
2022-11-12T02:33:39.243Z,20
2022-11-12T02:34:39.229Z,20
2022-11-12T02:35:39.217Z,20
2022-11-12T02:36:39.208Z,20
2022-11-12T02:37:39.191Z,20
2022-11-12T02:38:39.186Z,20
2022-11-12T02:39:39.176Z,20
2022-11-12T02:40:39.183Z,20
2022-11-12T02:41:39.153Z,20
2022-11-12T02:42:39.152Z,20
2022-11-12T02:43:39.136Z,20
2022-11-12T02:44:39.121Z,20
2022-11-12T02:45:39.107Z,20
2022-11-12T02:46:39.096Z,20
2022-11-12T02:47:39.091Z,20
2022-11-12T02:48:39.083Z,20
2022-11-12T02:49:39.069Z,20
2022-11-12T02:50:39.058Z,20
2022-11-12T02:51:39.047Z,20
2022-11-12T02:52:39.042Z,20
2022-11-12T02:53:39.026Z,20
2022-11-12T02:54:39.024Z,20
2022-11-12T02:55:39.005Z,20
2022-11-12T02:56:38.989Z,20
2022-11-12T02:57:38.987Z,20
2022-11-12T02:58:38.976Z,20
2022-11-12T02:59:38.961Z,20
2022-11-12T03:00:38.955Z,20
2022-11-12T03:01:38.942Z,20
2022-11-12T03:02:38.928Z,20
2022-11-12T03:03:38.925Z,20
2022-11-12T03:04:38.909Z,20
2022-11-12T03:05:38.899Z,20
2022-11-12T03:06:38.897Z,20
2022-11-12T03:07:38.876Z,20
2022-11-12T03:08:38.865Z,20
2022-11-12T03:09:38.864Z,20
2022-11-12T03:10:38.845Z,20
2022-11-12T03:11:38.835Z,20
2022-11-12T03:12:38.845Z,20
2022-11-12T03:13:38.814Z,20
2022-11-12T03:14:38.804Z,24
2022-11-12T03:15:38.793Z,20
2022-11-12T03:16:38.780Z,20
2022-11-12T03:17:38.769Z,20
2022-11-12T03:18:38.766Z,20
2022-11-12T03:19:38.752Z,20
2022-11-12T03:20:38.737Z,20
2022-11-12T03:21:38.733Z,20
2022-11-12T03:22:38.719Z,20
2022-11-12T03:23:38.712Z,20
2022-11-12T03:24:38.719Z,20
2022-11-12T03:25:38.688Z,20
2022-11-12T03:26:38.685Z,20
2022-11-12T03:27:38.665Z,20
2022-11-12T03:28:38.662Z,20
2022-11-12T03:29:38.643Z,20
2022-11-12T03:30:38.639Z,20
2022-11-12T03:31:38.631Z,20
2022-11-12T03:32:38.615Z,20
2022-11-12T03:33:38.607Z,20
2022-11-12T03:34:38.593Z,20
2022-11-12T03:35:38.594Z,20
2022-11-12T03:36:38.599Z,20
2022-11-12T03:37:38.572Z,20
2022-11-12T03:38:38.552Z,20
2022-11-12T03:39:38.541Z,20
2022-11-12T03:40:38.526Z,20
2022-11-12T03:41:38.518Z,20
2022-11-12T03:42:38.514Z,20
2022-11-12T03:43:38.500Z,20
2022-11-12T03:44:38.493Z,20
2022-11-12T03:45:38.482Z,20
2022-11-12T03:46:38.479Z,20
2022-11-12T03:47:38.460Z,20
2022-11-12T03:48:38.442Z,20
2022-11-12T03:49:38.463Z,20
2022-11-12T03:50:38.423Z,20
2022-11-12T03:51:38.413Z,20
2022-11-12T03:52:38.409Z,20
2022-11-12T03:53:38.401Z,20
2022-11-12T03:54:38.381Z,20
2022-11-12T03:55:38.386Z,20
2022-11-12T03:56:38.367Z,20
2022-11-12T03:57:46.021Z,20
2022-11-12T04:00:11.685Z,20
2022-11-12T04:01:19.338Z,24
2022-11-12T04:02:19.304Z,24
2022-11-12T04:03:11.611Z,24
2022-11-12T04:04:20.206Z,24
2022-11-12T04:05:11.548Z,24
2022-11-12T04:06:11.536Z,24
2022-11-12T04:07:19.178Z,24
2022-11-12T04:08:19.166Z,24
2022-11-12T04:09:11.499Z,24
2022-11-12T04:10:11.492Z,24
2022-11-12T04:11:11.522Z,24
2022-11-12T04:12:11.461Z,24
2022-11-12T04:13:11.434Z,24
2022-11-12T04:14:11.460Z,24
2022-11-12T04:15:11.482Z,24
2022-11-12T04:16:11.457Z,24
2022-11-12T04:17:11.494Z,24
2022-11-12T04:18:12.380Z,24
2022-11-12T04:19:11.400Z,24
2022-11-12T04:20:11.361Z,24
2022-11-12T04:21:11.355Z,24
2022-11-12T04:22:11.358Z,28
2022-11-12T04:23:11.327Z,24
2022-11-12T04:24:11.318Z,24
2022-11-12T04:25:11.305Z,24
2022-11-12T04:26:11.293Z,24
2022-11-12T04:27:11.296Z,24
2022-11-12T04:28:11.276Z,24
2022-11-12T04:29:11.262Z,24
2022-11-12T04:30:11.252Z,24
2022-11-12T04:31:11.242Z,24
2022-11-12T04:32:11.231Z,24
2022-11-12T04:33:11.809Z,24
2022-11-12T04:34:11.224Z,28
2022-11-12T04:35:11.218Z,24
2022-11-12T04:36:11.237Z,28
2022-11-12T04:37:11.172Z,24
2022-11-12T04:38:11.195Z,24
2022-11-12T04:39:11.179Z,24
2022-11-12T04:40:11.170Z,24
2022-11-12T04:41:11.165Z,24
2022-11-12T04:42:11.124Z,24
2022-11-12T04:43:11.115Z,24
2022-11-12T04:44:11.107Z,24
2022-11-12T04:45:11.098Z,24
2022-11-12T04:46:11.086Z,24
2022-11-12T04:47:11.076Z,24
2022-11-12T04:48:11.069Z,24
2022-11-12T04:49:11.052Z,24
2022-11-12T04:50:11.037Z,24
2022-11-12T04:51:11.029Z,24
2022-11-12T04:52:11.018Z,24
2022-11-12T04:53:11.015Z,24
2022-11-12T04:54:10.998Z,24
2022-11-12T04:55:10.985Z,24
2022-11-12T04:56:10.985Z,24
2022-11-12T04:57:10.963Z,24
2022-11-12T04:58:10.953Z,24
2022-11-12T04:59:10.940Z,24
2022-11-12T05:00:10.929Z,24
2022-11-12T05:01:10.925Z,24
2022-11-12T05:02:10.922Z,24
2022-11-12T05:03:10.908Z,24
2022-11-12T05:04:10.898Z,24
2022-11-12T05:05:10.883Z,24
2022-11-12T05:06:10.869Z,24
2022-11-12T05:07:10.865Z,24
2022-11-12T05:08:10.846Z,24
2022-11-12T05:09:10.836Z,24
2022-11-12T05:10:10.824Z,24
2022-11-12T05:11:10.813Z,24
2022-11-12T05:12:10.811Z,24
2022-11-12T05:13:10.819Z,24
2022-11-12T05:14:10.803Z,24
2022-11-12T05:15:10.769Z,24
2022-11-12T05:16:10.761Z,24
2022-11-12T05:17:10.752Z,24
2022-11-12T05:18:10.742Z,24
2022-11-12T05:19:10.733Z,24
2022-11-12T05:20:10.722Z,24
2022-11-12T05:21:10.710Z,24
2022-11-12T05:22:10.701Z,24
2022-11-12T05:23:10.689Z,24
2022-11-12T05:24:10.689Z,24
2022-11-12T05:25:10.669Z,24
2022-11-12T05:26:10.678Z,24
2022-11-12T05:27:10.647Z,24
2022-11-12T05:28:10.634Z,24
2022-11-12T05:29:10.627Z,24
2022-11-12T05:30:10.614Z,24
2022-11-12T05:31:10.609Z,24
2022-11-12T05:32:10.590Z,24
2022-11-12T05:33:10.593Z,24
2022-11-12T05:34:10.601Z,24
2022-11-12T05:35:10.556Z,24
2022-11-12T05:36:10.549Z,32
2022-11-12T05:37:10.542Z,24
2022-11-12T05:38:10.553Z,24
2022-11-12T05:39:10.524Z,24
2022-11-12T05:40:10.507Z,24
2022-11-12T05:41:10.497Z,24
2022-11-12T05:42:10.494Z,24
2022-11-12T05:43:10.485Z,24
2022-11-12T05:44:10.468Z,24
2022-11-12T05:45:10.455Z,24
2022-11-12T05:46:10.449Z,24
2022-11-12T05:47:10.435Z,24
2022-11-12T05:48:10.433Z,28
2022-11-12T05:49:10.424Z,24
2022-11-12T05:50:10.401Z,24
2022-11-12T05:51:10.395Z,24
2022-11-12T05:52:10.383Z,24
2022-11-12T05:53:10.371Z,24
2022-11-12T05:54:10.370Z,24
2022-11-12T05:55:10.359Z,24
2022-11-12T05:56:10.368Z,24
2022-11-12T05:57:10.327Z,24
2022-11-12T05:58:10.320Z,24
2022-11-12T05:59:10.309Z,24
2022-11-12T06:00:10.317Z,24
2022-11-12T06:01:10.300Z,24
2022-11-12T06:02:10.279Z,24
2022-11-12T06:03:10.275Z,24
2022-11-12T06:04:10.252Z,24
2022-11-12T06:05:10.266Z,28
2022-11-12T06:06:10.245Z,28
2022-11-12T06:07:10.240Z,28
2022-11-12T06:08:10.217Z,28
2022-11-12T06:09:10.220Z,28
2022-11-12T06:10:10.199Z,24
2022-11-12T06:11:10.180Z,28
2022-11-12T06:12:10.174Z,28
2022-11-12T06:13:10.184Z,28
2022-11-12T06:14:10.178Z,32
2022-11-12T06:15:10.142Z,28
2022-11-12T06:16:10.127Z,32
2022-11-12T06:17:10.121Z,32
2022-11-12T06:18:10.119Z,36
2022-11-12T06:19:10.092Z,36
2022-11-12T06:20:10.099Z,28
2022-11-12T06:21:10.072Z,32
2022-11-12T06:22:10.070Z,28
2022-11-12T06:23:10.061Z,32
2022-11-12T06:24:10.048Z,36
2022-11-12T06:25:10.035Z,40
2022-11-12T06:26:10.022Z,44
2022-11-12T06:27:10.013Z,48
2022-11-12T06:28:10.020Z,56
2022-11-12T06:29:09.988Z,60
2022-11-12T06:30:09.975Z,64
2022-11-12T06:31:09.966Z,76
2022-11-12T06:32:09.958Z,84
2022-11-12T06:33:09.947Z,96
2022-11-12T06:34:09.943Z,112
2022-11-12T06:35:09.932Z,128
2022-11-12T06:36:09.916Z,140
2022-11-12T06:37:09.907Z,152
2022-11-12T06:38:09.896Z,168
2022-11-12T06:39:09.882Z,180
2022-11-12T06:40:09.874Z,192
2022-11-12T06:41:09.862Z,208
2022-11-12T06:42:09.870Z,224
2022-11-12T06:43:09.843Z,232
2022-11-12T06:44:09.834Z,248
2022-11-12T06:45:09.820Z,272
2022-11-12T06:46:09.830Z,292
2022-11-12T06:47:09.798Z,324
2022-11-12T06:48:09.796Z,348
2022-11-12T06:49:09.786Z,376
2022-11-12T06:50:09.842Z,404
2022-11-12T06:51:09.758Z,424
2022-11-12T06:52:09.744Z,444
2022-11-12T06:53:09.741Z,464
2022-11-12T06:54:09.747Z,480
2022-11-12T06:55:09.717Z,500
2022-11-12T06:56:09.707Z,516
2022-11-12T06:57:09.703Z,524
2022-11-12T06:58:09.689Z,540
2022-11-12T06:59:09.683Z,556
2022-11-12T07:00:09.665Z,568
2022-11-12T07:01:09.654Z,584
2022-11-12T07:02:09.645Z,596
2022-11-12T07:03:09.638Z,608
2022-11-12T07:04:09.623Z,632
2022-11-12T07:05:09.609Z,636
2022-11-12T07:06:09.672Z,652
2022-11-12T07:07:09.593Z,676
2022-11-12T07:08:09.577Z,708
2022-11-12T07:09:09.566Z,732
2022-11-12T07:10:09.557Z,764
2022-11-12T07:11:09.552Z,788
2022-11-12T07:12:09.537Z,816
2022-11-12T07:13:09.527Z,836
2022-11-12T07:14:09.512Z,860
2022-11-12T07:15:09.505Z,872
2022-11-12T07:16:09.505Z,884
2022-11-12T07:17:09.484Z,896
2022-11-12T07:18:09.482Z,900
2022-11-12T07:19:09.462Z,912
2022-11-12T07:20:09.460Z,920
2022-11-12T07:21:09.441Z,928
2022-11-12T07:22:09.440Z,944
2022-11-12T07:23:09.420Z,956
2022-11-12T07:24:09.406Z,980
2022-11-12T07:25:09.393Z,1008
2022-11-12T07:26:09.389Z,1032
2022-11-12T07:27:09.377Z,1068
2022-11-12T07:28:09.364Z,1104
2022-11-12T07:29:09.355Z,1156
2022-11-12T07:30:09.353Z,1196
2022-11-12T07:31:09.338Z,1252
2022-11-12T07:32:09.336Z,1304
2022-11-12T07:33:09.328Z,1360
2022-11-12T07:34:09.319Z,1412
2022-11-12T07:35:09.297Z,1460
2022-11-12T07:36:09.295Z,1516
2022-11-12T07:37:09.268Z,1556
2022-11-12T07:38:09.282Z,1596
2022-11-12T07:39:09.247Z,1636
2022-11-12T07:40:09.239Z,1668
2022-11-12T07:41:09.227Z,1700
2022-11-12T07:42:09.215Z,1740
2022-11-12T07:43:09.210Z,1772
2022-11-12T07:44:09.214Z,1812
2022-11-12T07:45:09.224Z,1848
2022-11-12T07:46:09.175Z,1892
2022-11-12T07:47:09.168Z,1928
2022-11-12T07:48:09.161Z,1980
2022-11-12T07:49:09.146Z,2036
2022-11-12T07:50:09.227Z,2092
2022-11-12T07:51:09.122Z,2152
2022-11-12T07:52:09.111Z,2204
2022-11-12T07:53:09.128Z,2252
2022-11-12T07:54:09.085Z,2300
2022-11-12T07:55:09.077Z,2352
2022-11-12T07:56:09.085Z,2400
2022-11-12T07:57:09.057Z,2460
2022-11-12T07:58:09.044Z,2512
2022-11-12T07:59:09.033Z,2560
2022-11-12T08:00:09.030Z,2600
2022-11-12T08:01:09.010Z,2644
2022-11-12T08:02:08.997Z,2672
2022-11-12T08:03:08.994Z,2688
2022-11-12T08:04:08.984Z,2708
2022-11-12T08:05:08.971Z,2712
2022-11-12T08:06:08.962Z,2728
2022-11-12T08:07:08.961Z,2756
2022-11-12T08:08:08.937Z,2756
2022-11-12T08:09:08.930Z,2764
2022-11-12T08:10:08.916Z,2760
2022-11-12T08:11:08.934Z,2756
2022-11-12T08:12:08.898Z,2684
2022-11-12T08:13:08.883Z,2632
2022-11-12T08:14:08.880Z,2584
2022-11-12T08:15:08.862Z,2532
2022-11-12T08:16:08.851Z,2468
2022-11-12T08:17:08.848Z,2396
2022-11-12T08:18:08.833Z,2304
2022-11-12T08:19:08.826Z,2172
2022-11-12T08:20:08.821Z,2012
2022-11-12T08:21:08.810Z,1860
2022-11-12T08:22:08.790Z,1748
2022-11-12T08:23:08.800Z,1692
2022-11-12T08:24:08.791Z,1680
2022-11-12T08:25:08.758Z,1680
2022-11-12T08:26:08.740Z,1688
2022-11-12T08:27:08.795Z,1700
2022-11-12T08:28:08.729Z,1692
2022-11-12T08:29:08.710Z,1668
2022-11-12T08:30:08.699Z,1652
2022-11-12T08:31:08.710Z,1652
2022-11-12T08:32:08.675Z,1656
2022-11-12T08:33:08.667Z,1672
2022-11-12T08:34:08.657Z,1680
2022-11-12T08:35:08.646Z,1700
2022-11-12T08:36:08.638Z,1712
2022-11-12T08:37:08.643Z,1732
2022-11-12T08:38:08.631Z,1752
2022-11-12T08:39:08.603Z,1780
2022-11-12T08:40:08.592Z,1804
2022-11-12T08:41:08.583Z,1824
2022-11-12T08:42:08.569Z,1848
2022-11-12T08:43:08.560Z,1848
2022-11-12T08:44:08.557Z,1856
2022-11-12T08:45:08.539Z,1868
2022-11-12T08:46:08.525Z,1856
2022-11-12T08:47:08.518Z,1860
2022-11-12T08:48:09.301Z,1852
2022-11-12T08:49:08.524Z,1840
2022-11-12T08:50:08.483Z,1852
2022-11-12T08:51:08.489Z,1888
2022-11-12T08:52:08.462Z,1904
2022-11-12T08:53:08.453Z,1884
2022-11-12T08:54:08.455Z,1896
2022-11-12T08:55:08.432Z,2120
2022-11-12T08:56:08.427Z,1960
2022-11-12T08:57:08.419Z,1960
2022-11-12T08:58:08.398Z,1964
2022-11-12T08:59:08.392Z,2012
2022-11-12T09:00:08.379Z,2056
2022-11-12T09:01:08.364Z,2088
2022-11-12T09:02:08.376Z,2108
2022-11-12T09:03:08.351Z,2160
2022-11-12T09:04:08.333Z,2204
2022-11-12T09:05:08.363Z,2224
2022-11-12T09:06:08.317Z,2276
2022-11-12T09:07:08.324Z,2364
2022-11-12T09:08:08.291Z,2452
2022-11-12T09:09:08.293Z,2568
2022-11-12T09:10:08.270Z,2676
2022-11-12T09:11:08.265Z,2748
2022-11-12T09:12:08.268Z,2812
2022-11-12T09:13:08.260Z,2868
2022-11-12T09:14:08.231Z,2980
2022-11-12T09:15:08.227Z,3164
2022-11-12T09:16:08.203Z,3232
2022-11-12T09:17:08.204Z,3356
2022-11-12T09:18:08.203Z,3472
2022-11-12T09:19:08.182Z,3608
2022-11-12T09:20:08.165Z,3736
2022-11-12T09:21:08.155Z,3832
2022-11-12T09:22:08.149Z,3908
2022-11-12T09:23:08.130Z,3996
2022-11-12T09:24:08.187Z,4096
2022-11-12T09:25:08.115Z,4160
2022-11-12T09:26:08.128Z,4208
2022-11-12T09:27:08.123Z,4244
2022-11-12T09:28:08.203Z,4272
2022-11-12T09:29:08.065Z,4328
2022-11-12T09:30:08.098Z,4404
2022-11-12T09:31:08.048Z,4524
2022-11-12T09:32:08.031Z,4668
2022-11-12T09:33:08.024Z,4824
2022-11-12T09:34:08.023Z,4952
2022-11-12T09:35:08.004Z,5100
2022-11-12T09:36:07.991Z,5220
2022-11-12T09:37:07.987Z,5304
2022-11-12T09:38:07.982Z,5436
2022-11-12T09:39:07.960Z,5572
2022-11-12T09:40:07.962Z,5692
2022-11-12T09:41:08.004Z,5796
2022-11-12T09:42:07.979Z,5924
2022-11-12T09:43:07.951Z,6024
2022-11-12T09:44:07.952Z,6136
2022-11-12T09:45:07.939Z,6264
2022-11-12T09:46:07.909Z,6384
2022-11-12T09:47:07.900Z,6572
2022-11-12T09:48:07.876Z,6760
2022-11-12T09:49:07.857Z,6972
2022-11-12T09:50:07.850Z,7200
2022-11-12T09:51:07.848Z,7404
2022-11-12T09:52:07.832Z,7652
2022-11-12T09:53:07.890Z,7932
2022-11-12T09:54:07.808Z,8072
2022-11-12T09:55:07.794Z,8260
2022-11-12T09:56:07.833Z,8356
2022-11-12T09:57:07.773Z,8428
2022-11-12T09:58:07.778Z,8476
2022-11-12T09:59:07.838Z,8520
2022-11-12T10:00:07.738Z,8564
2022-11-12T10:01:07.730Z,8524
2022-11-12T10:02:07.723Z,8504
2022-11-12T10:03:07.705Z,8484
2022-11-12T10:04:07.689Z,8512
2022-11-12T10:05:07.691Z,8592
2022-11-12T10:06:07.693Z,8632
2022-11-12T10:07:07.746Z,8648
2022-11-12T10:08:07.655Z,8620
2022-11-12T10:09:07.648Z,8640
2022-11-12T10:10:07.636Z,8588
2022-11-12T10:11:07.647Z,8520
2022-11-12T10:12:07.606Z,8432
2022-11-12T10:13:07.592Z,8360
2022-11-12T10:14:07.583Z,8220
2022-11-12T10:15:08.266Z,8132
2022-11-12T10:16:07.590Z,7976
2022-11-12T10:17:07.558Z,7872
2022-11-12T10:18:07.536Z,7728
2022-11-12T10:19:07.543Z,7572
2022-11-12T10:20:07.534Z,7380
2022-11-12T10:21:07.523Z,7188
2022-11-12T10:22:07.509Z,6996
2022-11-12T10:23:07.485Z,6832
2022-11-12T10:24:07.477Z,6684
2022-11-12T10:25:07.466Z,6548
2022-11-12T10:26:07.457Z,6440
2022-11-12T10:27:07.507Z,6372
2022-11-12T10:28:08.292Z,6340
2022-11-12T10:29:07.416Z,6344
2022-11-12T10:30:07.409Z,6416
2022-11-12T10:31:07.401Z,6460
2022-11-12T10:32:07.389Z,6532
2022-11-12T10:33:07.406Z,6548
2022-11-12T10:34:07.361Z,6628
2022-11-12T10:35:07.423Z,6672
2022-11-12T10:36:07.402Z,6744
2022-11-12T10:37:07.343Z,6852
2022-11-12T10:38:07.339Z,6948
2022-11-12T10:39:07.309Z,7084
2022-11-12T10:40:07.302Z,7176
2022-11-12T10:41:07.348Z,7280
2022-11-12T10:42:07.283Z,7332
2022-11-12T10:43:07.376Z,7476
2022-11-12T10:44:07.256Z,7556
2022-11-12T10:45:15.064Z,7624
2022-11-12T10:46:32.502Z,7676
2022-11-12T10:47:07.312Z,7680
2022-11-12T10:48:07.334Z,7764
2022-11-12T10:49:07.311Z,7828
2022-11-12T10:50:07.218Z,7884
2022-11-12T10:51:07.221Z,7948
2022-11-12T10:52:07.215Z,8032
2022-11-12T10:53:07.250Z,8100
2022-11-12T10:54:07.199Z,8096
2022-11-12T10:55:07.192Z,8164
2022-11-12T10:56:07.128Z,8136
2022-11-12T10:57:07.262Z,8156
2022-11-12T10:58:07.115Z,8224
2022-11-12T10:59:07.098Z,8264
2022-11-12T11:00:07.085Z,8292
2022-11-12T11:01:07.085Z,8336
2022-11-12T11:02:07.098Z,8348
2022-11-12T11:03:07.200Z,8376
2022-11-12T11:04:07.066Z,8380
2022-11-12T11:05:07.038Z,8488
2022-11-12T11:06:07.025Z,8548
2022-11-12T11:07:07.033Z,8540
2022-11-12T11:08:07.006Z,8664
2022-11-12T11:09:07.012Z,8760
2022-11-12T11:10:06.977Z,8852
2022-11-12T11:11:06.969Z,8968
2022-11-12T11:12:06.988Z,9116
2022-11-12T11:13:06.994Z,9308
2022-11-12T11:14:06.943Z,9492
2022-11-12T11:15:06.933Z,9836
2022-11-12T11:16:06.928Z,10096
2022-11-12T11:17:06.910Z,10404
2022-11-12T11:18:06.900Z,10660
2022-11-12T11:19:06.880Z,10924
2022-11-12T11:20:06.914Z,11064
2022-11-12T11:21:06.876Z,11360
2022-11-12T11:22:06.847Z,11540
2022-11-12T11:23:06.848Z,11780
2022-11-12T11:24:06.831Z,12060
2022-11-12T11:25:06.818Z,12332
2022-11-12T11:26:06.817Z,12648
2022-11-12T11:27:06.828Z,13044
2022-11-12T11:28:06.804Z,13732
2022-11-12T11:29:06.787Z,14216
2022-11-12T11:30:06.767Z,15120
2022-11-12T11:31:06.757Z,16832
2022-11-12T11:32:06.744Z,17984
2022-11-12T11:33:06.730Z,19264
2022-11-12T11:34:06.796Z,23456
2022-11-12T11:35:06.727Z,37504
2022-11-12T11:36:06.868Z,46624
2022-11-12T11:37:06.722Z,46240
2022-11-12T11:38:06.715Z,43968
2022-11-12T11:39:06.668Z,45600
2022-11-12T11:40:06.684Z,40768
2022-11-12T11:41:06.646Z,35456
2022-11-12T11:42:06.689Z,36352
2022-11-12T11:43:06.667Z,35232
2022-11-12T11:44:06.619Z,28928
2022-11-12T11:45:06.610Z,26880
2022-11-12T11:46:06.590Z,26176
2022-11-12T11:47:06.591Z,26176
2022-11-12T11:48:06.767Z,26944
2022-11-12T11:49:06.615Z,26208
2022-11-12T11:50:06.573Z,27168
2022-11-12T11:51:06.544Z,30304
2022-11-12T11:52:06.546Z,30048
2022-11-12T11:53:06.522Z,32576
2022-11-12T11:54:06.552Z,31264
2022-11-12T11:55:06.507Z,27808
2022-11-12T11:56:06.494Z,25824
2022-11-12T11:57:06.475Z,24384
2022-11-12T11:58:06.487Z,24448
2022-11-12T11:59:06.454Z,23424
2022-11-12T12:00:06.469Z,22528
2022-11-12T12:01:06.487Z,21248
2022-11-12T12:02:06.415Z,21696
2022-11-12T12:03:06.426Z,20832
2022-11-12T12:04:06.407Z,20032
2022-11-12T12:05:06.394Z,18976
2022-11-12T12:06:06.413Z,18624
2022-11-12T12:07:06.367Z,18112
2022-11-12T12:08:06.356Z,18464
2022-11-12T12:09:06.345Z,18496
2022-11-12T12:10:06.451Z,19840
2022-11-12T12:11:06.323Z,20160
2022-11-12T12:12:06.369Z,16960
2022-11-12T12:13:06.296Z,15044
2022-11-12T12:14:06.288Z,15048
2022-11-12T12:15:06.322Z,14808
2022-11-12T12:16:06.286Z,14308
2022-11-12T12:17:06.278Z,14456
2022-11-12T12:18:06.297Z,15264
2022-11-12T12:19:06.236Z,16400
2022-11-12T12:20:06.223Z,17376
2022-11-12T12:21:06.223Z,17600
2022-11-12T12:22:06.203Z,15848
2022-11-12T12:23:06.231Z,12816
2022-11-12T12:24:06.203Z,11108
2022-11-12T12:25:06.171Z,10348
2022-11-12T12:26:06.159Z,9816
2022-11-12T12:27:06.176Z,9432
2022-11-12T12:28:06.183Z,9184
2022-11-12T12:29:06.153Z,9016
2022-11-12T12:30:06.129Z,8800
2022-11-12T12:31:06.165Z,8644
2022-11-12T12:32:06.098Z,8488
2022-11-12T12:33:06.081Z,8272
2022-11-12T12:34:06.089Z,8132
2022-11-12T12:35:06.073Z,7932
2022-11-12T12:36:06.064Z,7772
2022-11-12T12:37:06.043Z,7540
2022-11-12T12:38:06.046Z,7376
2022-11-12T12:39:06.053Z,7200
2022-11-12T12:40:06.006Z,7088
2022-11-12T12:41:06.022Z,6956
2022-11-12T12:42:05.992Z,6860
2022-11-12T12:43:06.002Z,6832
2022-11-12T12:44:05.967Z,6752
2022-11-12T12:45:05.960Z,6668
2022-11-12T12:46:05.945Z,6632
2022-11-12T12:47:05.984Z,6548
2022-11-12T12:48:05.952Z,6416
2022-11-12T12:49:05.918Z,6336
2022-11-12T12:50:05.919Z,6240
2022-11-12T12:51:05.919Z,6156
2022-11-12T12:52:05.896Z,6116
2022-11-12T12:53:05.874Z,6244
2022-11-12T12:54:05.856Z,6036
2022-11-12T12:55:05.860Z,5984
2022-11-12T12:56:05.870Z,5892
2022-11-12T12:57:05.830Z,5868
2022-11-12T12:58:05.882Z,5780
2022-11-12T12:59:05.831Z,5688
2022-11-12T13:00:05.812Z,5528
2022-11-12T13:01:05.823Z,5412
2022-11-12T13:02:05.791Z,5224
2022-11-12T13:03:05.783Z,5080
2022-11-12T13:04:05.752Z,4932
2022-11-12T13:05:05.750Z,4784
2022-11-12T13:06:05.731Z,4664
2022-11-12T13:07:05.745Z,4536
2022-11-12T13:08:05.712Z,4480
2022-11-12T13:09:05.715Z,4400
2022-11-12T13:10:05.689Z,4320
2022-11-12T13:11:05.679Z,4288
2022-11-12T13:12:05.668Z,4256
2022-11-12T13:13:05.671Z,4212
2022-11-12T13:14:05.672Z,4168
2022-11-12T13:15:05.646Z,4132
2022-11-12T13:16:05.617Z,4136
2022-11-12T13:17:05.623Z,4104
2022-11-12T13:18:05.601Z,4080
2022-11-12T13:19:05.615Z,4024
2022-11-12T13:20:05.591Z,3992
2022-11-12T13:21:05.578Z,3924
2022-11-12T13:22:05.556Z,3876
2022-11-12T13:23:05.548Z,3824
2022-11-12T13:24:05.591Z,3792
2022-11-12T13:25:06.626Z,3752
2022-11-12T13:26:05.510Z,3724
2022-11-12T13:27:05.503Z,3752
2022-11-12T13:28:05.515Z,3768
2022-11-12T13:29:05.503Z,3756
2022-11-12T13:30:05.475Z,3824
2022-11-12T13:31:05.505Z,3872
2022-11-12T13:32:05.450Z,3900
2022-11-12T13:33:05.434Z,3948
2022-11-12T13:34:05.443Z,3980
2022-11-12T13:35:05.426Z,4012
2022-11-12T13:36:06.325Z,4032
2022-11-12T13:37:05.397Z,4000
2022-11-12T13:38:05.416Z,3980
2022-11-12T13:39:05.418Z,3928
2022-11-12T13:40:05.408Z,3896
2022-11-12T13:41:05.353Z,3848
2022-11-12T13:42:05.374Z,3880
2022-11-12T13:43:05.365Z,3744
2022-11-12T13:44:06.323Z,3720
2022-11-12T13:45:05.318Z,3708
2022-11-12T13:46:05.309Z,3704
2022-11-12T13:47:05.337Z,3684
2022-11-12T13:48:05.339Z,3676